Time;durP1;ratioP1;P1;durP2;ratioP2;P2;SDS_P1;SDS_P2;PMS_P1;PMS_P2;Temp;Humidity;BMP_temperature;BMP_pressure;BME280_temperature;BME280_humidity;BME280_pressure;Samples;Min_cycle;Max_cycle;Signal;HPM_P1;HPM_P2
2021/12/08 00:00:58;;;;;;;8.82;2.35;;;2.90;99.90;;;;;;5008603;28;20566;-81
2021/12/08 00:03:25;;;;;;;8.70;2.55;;;3.00;99.90;;;;;;5006069;28;20049;-79
2021/12/08 00:05:52;;;;;;;7.75;2.08;;;2.50;99.90;;;;;;5011962;28;20096;-81
2021/12/08 00:08:19;;;;;;;7.22;2.25;;;2.70;99.90;;;;;;5002493;28;20036;-81
2021/12/08 00:13:01;;;;;;;8.05;2.88;;;2.60;99.90;;;;;;5011283;28;20053;-77
2021/12/08 00:13:35;;;;;;;6.07;2.67;;;2.60;99.90;;;;;;5004426;28;20070;-78
2021/12/08 00:16:09;;;;;;;6.90;2.47;;;2.60;99.90;;;;;;5009884;28;20081;-79
2021/12/08 00:18:37;;;;;;;6.22;2.55;;;2.60;99.90;;;;;;5007242;28;20529;-79
2021/12/08 00:21:06;;;;;;;9.23;2.60;;;2.60;99.90;;;;;;5009197;28;20474;-79
2021/12/08 00:23:32;;;;;;;8.88;2.70;;;3.00;99.90;;;;;;5005781;28;20427;-79
2021/12/08 00:25:58;;;;;;;8.93;3.10;;;2.70;99.90;;;;;;5007636;28;20037;-78
2021/12/08 00:28:24;;;;;;;7.20;2.42;;;2.70;99.90;;;;;;5010065;28;20073;-77
2021/12/08 00:30:54;;;;;;;11.50;2.70;;;2.70;99.90;;;;;;5007345;28;20042;-79
2021/12/08 00:33:22;;;;;;;8.25;2.38;;;2.70;99.90;;;;;;5008897;28;20386;-78
2021/12/08 00:35:50;;;;;;;5.25;2.53;;;3.70;99.90;;;;;;5001729;28;20061;-78
2021/12/08 00:38:18;;;;;;;11.07;3.28;;;2.80;99.90;;;;;;5002129;28;20061;-80
2021/12/08 00:40:44;;;;;;;5.90;2.65;;;2.80;99.90;;;;;;5004579;28;20046;-81
2021/12/08 00:43:10;;;;;;;7.88;2.65;;;2.70;99.90;;;;;;5007333;28;20049;-84
2021/12/08 00:45:35;;;;;;;11.13;3.05;;;2.60;99.90;;;;;;5010858;28;20046;-80
2021/12/08 00:48:02;;;;;;;7.05;2.35;;;2.70;99.90;;;;;;5007605;28;20042;-84
2021/12/08 00:50:32;;;;;;;7.63;2.22;;;4.80;99.90;;;;;;4986159;28;20050;-84
2021/12/08 00:52:58;;;;;;;8.32;2.78;;;2.90;99.90;;;;;;5005108;28;20367;-85
2021/12/08 00:55:25;;;;;;;10.05;2.95;;;2.90;99.90;;;;;;4990969;28;20049;-82
2021/12/08 00:57:51;;;;;;;8.68;2.85;;;2.90;99.90;;;;;;5005121;28;20104;-83
2021/12/08 01:00:22;;;;;;;6.93;2.55;;;2.90;99.90;;;;;;5010364;28;20041;-84
2021/12/08 01:02:48;;;;;;;7.03;2.58;;;3.00;99.90;;;;;;5007031;28;20065;-81
2021/12/08 01:05:17;;;;;;;7.13;2.58;;;2.80;99.90;;;;;;5007888;28;20379;-80
2021/12/08 01:07:43;;;;;;;6.07;2.47;;;2.80;99.90;;;;;;5005940;28;20050;-82
2021/12/08 01:10:13;;;;;;;8.20;2.78;;;3.50;99.90;;;;;;5006950;28;20057;-82
2021/12/08 01:12:39;;;;;;;8.45;3.25;;;3.00;99.90;;;;;;5010505;28;20124;-81
2021/12/08 01:15:06;;;;;;;9.27;3.10;;;3.00;99.90;;;;;;5003884;28;20125;-79
2021/12/08 01:17:32;;;;;;;5.20;2.42;;;3.00;99.90;;;;;;5011317;28;20050;-79
2021/12/08 01:19:58;;;;;;;9.10;3.28;;;3.00;99.90;;;;;;5003303;28;20048;-78
2021/12/08 01:22:24;;;;;;;10.35;3.78;;;3.00;99.90;;;;;;5009599;28;20050;-78
2021/12/08 01:24:49;;;;;;;11.90;2.80;;;3.00;99.90;;;;;;5003879;28;20103;-80
2021/12/08 01:27:15;;;;;;;9.07;2.72;;;3.10;99.90;;;;;;5006866;28;20402;-79
2021/12/08 01:29:40;;;;;;;3.60;2.00;;;4.70;99.90;;;;;;5010719;28;20053;-78
2021/12/08 01:32:07;;;;;;;5.53;2.83;;;3.20;99.90;;;;;;5004999;28;20042;-77
2021/12/08 01:34:33;;;;;;;6.55;2.63;;;3.20;99.90;;;;;;5010943;28;20048;-79
2021/12/08 01:36:59;;;;;;;6.53;3.05;;;3.20;99.90;;;;;;5005172;28;20100;-78
2021/12/08 01:39:25;;;;;;;8.77;3.67;;;3.10;99.90;;;;;;4992296;28;20046;-78
2021/12/08 01:41:52;;;;;;;7.72;3.30;;;3.10;99.90;;;;;;5007477;28;20474;-83
2021/12/08 01:47:04;;;;;;;6.80;3.15;;;3.10;99.90;;;;;;5008576;28;20133;-82
2021/12/08 01:49:30;;;;;;;7.25;3.25;;;3.10;99.90;;;;;;5010042;28;20049;-81
2021/12/08 01:51:56;;;;;;;10.00;3.28;;;3.20;99.90;;;;;;5012696;28;20045;-79
2021/12/08 01:54:21;;;;;;;9.45;2.90;;;3.60;99.90;;;;;;5005865;28;20050;-79
2021/12/08 01:56:48;;;;;;;5.72;2.92;;;3.20;99.90;;;;;;5014545;28;20049;-78
2021/12/08 01:59:13;;;;;;;6.82;3.00;;;3.20;99.90;;;;;;5007248;28;20042;-82
2021/12/08 02:01:41;;;;;;;8.85;2.70;;;3.20;99.90;;;;;;5000859;28;20069;-78
2021/12/08 02:04:08;;;;;;;6.43;3.03;;;3.20;99.90;;;;;;5008218;28;20537;-80
2021/12/08 02:06:40;;;;;;;6.97;3.30;;;3.30;99.90;;;;;;5005307;28;20406;-77
2021/12/08 02:09:12;;;;;;;7.20;2.65;;;3.20;99.90;;;;;;4989576;28;20493;-78
2021/12/08 02:11:39;;;;;;;4.35;2.70;;;1.90;99.90;;;;;;5009968;28;20398;-82
2021/12/08 02:14:05;;;;;;;11.70;3.08;;;3.30;99.90;;;;;;5006041;28;20076;-79
2021/12/08 02:16:31;;;;;;;7.80;2.80;;;4.70;99.90;;;;;;5008649;28;20556;-78
2021/12/08 02:18:58;;;;;;;7.28;3.40;;;3.30;99.90;;;;;;5004473;28;20486;-78
2021/12/08 02:21:31;;;;;;;10.55;3.50;;;3.90;99.90;;;;;;5007326;28;20530;-79
2021/12/08 02:23:59;;;;;;;5.90;3.05;;;3.30;99.90;;;;;;5002380;28;20042;-81
2021/12/08 02:26:26;;;;;;;7.72;2.35;;;3.70;99.90;;;;;;5011286;28;20481;-82
2021/12/08 02:28:53;;;;;;;5.50;3.03;;;3.40;99.90;;;;;;5007404;28;20041;-78
2021/12/08 02:31:30;;;;;;;8.65;2.75;;;2.90;99.90;;;;;;5000950;28;20030;-78
2021/12/08 02:50:21;;;;;;;6.90;2.72;;;3.40;99.90;;;;;;5007941;28;20137;-77
2021/12/08 02:52:47;;;;;;;7.07;2.97;;;3.40;99.90;;;;;;4986434;28;20398;-82
2021/12/08 02:55:13;;;;;;;6.72;2.97;;;3.50;99.90;;;;;;5002872;28;20049;-78
2021/12/08 02:57:39;;;;;;;10.60;3.20;;;3.40;99.90;;;;;;5007361;28;20042;-80
2021/12/08 03:00:11;;;;;;;5.63;2.67;;;3.50;99.90;;;;;;5011730;28;20037;-79
2021/12/08 03:02:37;;;;;;;6.28;3.35;;;3.50;99.90;;;;;;5009709;28;20456;-78
2021/12/08 03:05:03;;;;;;;5.88;3.10;;;3.50;99.90;;;;;;5010921;28;20154;-78
2021/12/08 03:07:29;;;;;;;4.97;2.47;;;3.50;99.90;;;;;;5008431;28;20512;-82
2021/12/08 03:10:05;;;;;;;8.13;3.22;;;2.40;99.90;;;;;;5009585;28;20046;-80
2021/12/08 03:12:31;;;;;;;5.82;3.58;;;3.60;99.90;;;;;;5012521;28;20049;-77
2021/12/08 03:14:57;;;;;;;7.25;3.30;;;3.60;99.90;;;;;;5009704;28;20050;-78
2021/12/08 03:17:23;;;;;;;7.15;3.13;;;3.60;99.90;;;;;;5011624;28;20044;-79
2021/12/08 03:19:49;;;;;;;6.38;3.70;;;3.60;99.90;;;;;;5009225;28;20045;-82
2021/12/08 03:22:14;;;;;;;8.25;4.50;;;3.60;99.90;;;;;;5010822;28;20512;-77
2021/12/08 03:24:43;;;;;;;5.40;3.90;;;3.60;99.90;;;;;;5007619;28;20513;-80
2021/12/08 03:27:25;;;;;;;8.98;4.90;;;3.60;99.90;;;;;;5009731;28;20117;-80
2021/12/08 03:29:56;;;;;;;10.52;4.20;;;3.60;99.90;;;;;;5011764;28;20055;-82
2021/12/08 03:32:34;;;;;;;6.30;3.80;;;3.70;99.90;;;;;;5007983;28;20524;-81
2021/12/08 03:35:00;;;;;;;4.93;3.80;;;3.70;99.90;;;;;;5011239;28;20133;-83
2021/12/08 03:37:29;;;;;;;7.90;4.68;;;3.70;99.90;;;;;;5007028;28;20092;-78
2021/12/08 03:39:58;;;;;;;8.82;5.10;;;3.70;99.90;;;;;;5010330;28;20188;-78
2021/12/08 03:42:26;;;;;;;9.18;4.47;;;3.60;99.90;;;;;;5004067;28;20431;-82
2021/12/08 03:44:55;;;;;;;9.13;5.07;;;3.70;99.90;;;;;;5011604;28;20135;-78
2021/12/08 03:47:29;;;;;;;9.02;5.75;;;3.70;99.90;;;;;;5001411;28;20565;-79
2021/12/08 03:49:59;;;;;;;8.90;4.97;;;3.80;99.90;;;;;;5010387;28;20120;-82
2021/12/08 03:52:25;;;;;;;8.05;5.50;;;3.70;99.90;;;;;;5005872;28;20529;-79
2021/12/08 03:54:50;;;;;;;11.15;5.90;;;3.80;99.90;;;;;;5007260;28;20041;-79
2021/12/08 03:57:16;;;;;;;13.85;7.13;;;3.80;99.90;;;;;;5009185;28;20038;-79
2021/12/08 03:59:42;;;;;;;7.63;5.38;;;3.80;99.90;;;;;;5009750;28;20053;-77
2021/12/08 04:02:08;;;;;;;9.55;5.45;;;3.80;99.90;;;;;;5006855;28;20038;-78
2021/12/08 04:04:42;;;;;;;10.57;5.45;;;3.90;99.90;;;;;;5010965;28;20046;-80
2021/12/08 04:07:08;;;;;;;;;;;3.80;99.90;;;;;;5006393;28;20056;-78
2021/12/08 04:09:39;;;;;;;11.15;5.93;;;3.90;99.90;;;;;;5010042;28;20361;-80
2021/12/08 04:12:06;;;;;;;11.52;6.60;;;3.80;99.90;;;;;;5004933;28;20064;-78
2021/12/08 04:14:36;;;;;;;9.27;6.22;;;3.90;99.90;;;;;;5006975;28;20520;-81
2021/12/08 04:17:11;;;;;;;8.70;5.88;;;3.90;99.90;;;;;;5011009;28;20054;-77
2021/12/08 04:19:37;;;;;;;7.25;6.20;;;5.10;99.90;;;;;;5008163;28;20050;-78
2021/12/08 04:22:10;;;;;;;10.90;6.63;;;3.90;99.90;;;;;;5009427;28;20411;-79
2021/12/08 04:24:38;;;;;;;10.48;6.72;;;3.90;99.90;;;;;;5007321;28;20089;-78
2021/12/08 04:27:12;;;;;;;8.45;6.03;;;3.90;99.90;;;;;;5009176;28;20034;-79
2021/12/08 04:29:40;;;;;;;6.80;6.18;;;3.90;99.90;;;;;;5005557;28;20045;-78
2021/12/08 04:32:07;;;;;;;11.35;6.95;;;4.00;99.90;;;;;;5007673;28;20397;-80
2021/12/08 04:34:38;;;;;;;7.60;6.70;;;4.00;99.90;;;;;;5010148;28;20052;-78
2021/12/08 04:37:14;;;;;;;9.93;7.13;;;4.00;99.90;;;;;;5009277;28;20053;-79
2021/12/08 04:39:57;;;;;;;9.43;7.30;;;4.00;99.90;;;;;;5004532;28;20063;-79
2021/12/08 04:42:37;;;;;;;11.07;7.00;;;3.90;99.90;;;;;;5003925;28;20046;-82
2021/12/08 04:45:10;;;;;;;11.77;7.40;;;4.00;99.90;;;;;;5010554;28;20045;-81
2021/12/08 04:47:49;;;;;;;10.57;7.82;;;4.10;99.90;;;;;;5006208;28;20034;-81
2021/12/08 04:50:35;;;;;;;9.55;7.68;;;4.10;99.90;;;;;;5008166;28;20081;-82
2021/12/08 04:53:10;;;;;;;9.57;7.40;;;4.10;99.90;;;;;;5007553;28;20060;-82
2021/12/08 05:06:48;;;;;;;9.00;6.93;;;4.20;99.90;;;;;;4973564;28;20054;-82
2021/12/08 05:09:24;;;;;;;8.88;7.05;;;4.20;99.90;;;;;;5008263;28;20041;-82
2021/12/08 05:11:58;;;;;;;9.30;7.05;;;4.30;99.90;;;;;;4981821;28;20053;-80
2021/12/08 05:14:39;;;;;;;13.50;7.43;;;4.40;99.90;;;;;;5007735;28;20133;-82
2021/12/08 05:17:17;;;;;;;9.88;6.47;;;4.40;99.90;;;;;;5002896;28;20059;-78
2021/12/08 05:19:46;;;;;;;7.45;6.60;;;4.40;99.90;;;;;;5000865;28;20479;-83
2021/12/08 05:22:19;;;;;;;7.47;6.03;;;4.40;99.90;;;;;;5007005;28;20046;-82
2021/12/08 05:24:48;;;;;;;12.77;7.03;;;4.50;99.90;;;;;;5009298;28;20088;-81
2021/12/08 05:27:21;;;;;;;6.78;6.07;;;4.50;99.90;;;;;;5009258;28;20046;-81
2021/12/08 05:29:51;;;;;;;12.02;6.47;;;4.50;99.90;;;;;;5006259;28;20478;-80
2021/12/08 05:32:18;;;;;;;8.88;6.40;;;4.50;99.90;;;;;;5014324;28;20042;-80
2021/12/08 05:34:43;;;;;;;10.13;6.65;;;4.40;99.90;;;;;;5009425;28;20049;-78
2021/12/08 05:37:12;;;;;;;9.75;6.35;;;4.50;99.90;;;;;;5008075;28;20071;-83
2021/12/08 05:39:38;;;;;;;9.23;6.18;;;4.60;99.90;;;;;;5004747;28;20453;-81
2021/12/08 05:42:08;;;;;;;12.05;6.75;;;4.20;99.90;;;;;;5009575;28;20078;-81
2021/12/08 05:44:35;;;;;;;7.68;6.47;;;4.70;99.90;;;;;;5008966;28;20045;-83
2021/12/08 05:47:04;;;;;;;38.15;23.08;;;4.70;99.90;;;;;;5008813;28;20057;-77
2021/12/08 05:49:31;;;;;;;14.05;9.10;;;4.80;99.90;;;;;;5006856;28;20047;-83
2021/12/08 05:51:57;;;;;;;11.32;6.20;;;4.80;99.90;;;;;;5008992;28;20061;-82
2021/12/08 05:54:29;;;;;;;8.82;6.47;;;4.80;99.90;;;;;;5005373;28;20058;-83
2021/12/08 05:56:55;;;;;;;7.95;6.20;;;4.80;99.90;;;;;;5007598;28;20037;-84
2021/12/08 05:59:23;;;;;;;12.35;6.07;;;4.80;99.90;;;;;;5010183;28;20414;-83
2021/12/08 06:01:53;;;;;;;10.25;6.25;;;4.80;99.90;;;;;;5014432;28;20411;-82
2021/12/08 06:04:20;;;;;;;10.52;6.15;;;5.50;99.90;;;;;;5010700;28;20044;-83
2021/12/08 06:06:47;;;;;;;10.35;5.95;;;6.20;99.90;;;;;;5011594;28;20042;-78
2021/12/08 06:09:15;;;;;;;9.40;6.00;;;4.90;99.90;;;;;;5007933;28;20092;-82
2021/12/08 06:11:42;;;;;;;10.75;7.22;;;5.10;99.90;;;;;;5011361;28;20387;-81
2021/12/08 06:14:08;;;;;;;10.68;6.20;;;4.90;99.90;;;;;;5006752;28;20054;-82
2021/12/08 06:16:39;;;;;;;10.55;5.70;;;4.90;99.90;;;;;;5011613;28;20433;-80
2021/12/08 06:19:08;;;;;;;10.82;6.50;;;4.80;99.90;;;;;;5021018;28;20520;-79
2021/12/08 06:21:35;;;;;;;64.15;38.35;;;4.90;99.90;;;;;;5014763;28;20050;-78
2021/12/08 06:24:04;;;;;;;32.17;16.23;;;4.90;99.90;;;;;;5013154;28;20050;-83
2021/12/08 06:26:29;;;;;;;15.75;6.03;;;4.90;99.90;;;;;;5010044;28;20077;-81
2021/12/08 06:28:57;;;;;;;10.95;5.88;;;5.10;99.90;;;;;;5011524;28;20081;-84
2021/12/08 06:31:25;;;;;;;11.20;5.72;;;4.90;99.90;;;;;;5006691;28;20405;-79
2021/12/08 06:33:50;;;;;;;11.57;6.70;;;4.90;99.90;;;;;;5011634;28;20053;-82
2021/12/08 06:36:21;;;;;;;6.95;6.00;;;4.90;99.90;;;;;;4990518;28;20103;-81
2021/12/08 06:38:47;;;;;;;6.45;5.00;;;4.80;99.90;;;;;;5010436;28;20056;-83
2021/12/08 06:41:20;;;;;;;8.40;5.10;;;4.90;99.90;;;;;;5011397;28;20445;-80
2021/12/08 06:43:51;;;;;;;9.45;5.72;;;4.90;99.90;;;;;;5008639;28;20052;-83
2021/12/08 06:46:17;;;;;;;9.43;5.20;;;4.80;99.90;;;;;;5011378;28;20053;-83
2021/12/08 06:48:52;;;;;;;39.03;23.77;;;4.80;99.90;;;;;;5006248;28;20383;-81
2021/12/08 06:51:30;;;;;;;7.85;5.38;;;5.30;99.90;;;;;;5010129;28;20081;-81
2021/12/08 06:54:03;;;;;;;7.10;5.20;;;4.90;99.90;;;;;;5013928;28;20036;-82
2021/12/08 06:56:32;;;;;;;5.40;4.80;;;4.90;99.90;;;;;;5000753;28;20053;-83
2021/12/08 06:59:01;;;;;;;13.48;5.40;;;4.90;99.90;;;;;;5013339;28;20042;-83
2021/12/08 07:09:12;;;;;;;6.40;4.35;;;4.70;99.90;;;;;;5009576;28;20432;-79
2021/12/08 07:11:40;;;;;;;8.13;4.63;;;4.60;99.90;;;;;;5007753;28;20045;-78
2021/12/08 07:14:06;;;;;;;8.23;4.90;;;4.70;99.90;;;;;;5009023;28;20042;-83
2021/12/08 07:16:35;;;;;;;10.45;4.70;;;4.70;99.90;;;;;;5007312;28;20050;-81
2021/12/08 07:19:23;;;;;;;7.25;4.80;;;4.70;99.90;;;;;;5007636;28;20124;-80
2021/12/08 07:21:50;;;;;;;7.05;4.70;;;4.60;99.90;;;;;;5012621;28;20041;-81
2021/12/08 07:24:27;;;;;;;11.43;4.28;;;4.60;99.90;;;;;;5007065;28;20100;-83
2021/12/08 07:26:57;;;;;;;8.88;4.18;;;4.60;99.90;;;;;;5012095;28;20143;-79
2021/12/08 07:29:31;;;;;;;7.97;4.13;;;4.60;99.90;;;;;;4989711;28;20054;-80
2021/12/08 07:32:03;;;;;;;10.38;7.15;;;4.50;99.90;;;;;;4984812;28;20057;-78
2021/12/08 07:34:32;;;;;;;37.10;26.02;;;4.50;99.90;;;;;;5005164;28;20057;-83
2021/12/08 07:37:03;;;;;;;5.07;4.15;;;4.60;99.90;;;;;;5000887;28;20042;-82
2021/12/08 07:39:32;;;;;;;8.10;3.75;;;4.50;99.90;;;;;;5011646;28;20049;-81
2021/12/08 07:42:09;;;;;;;5.57;3.08;;;4.60;99.90;;;;;;5000154;28;20038;-84
2021/12/08 07:44:36;;;;;;;5.60;2.92;;;4.60;99.90;;;;;;5010546;28;20041;-84
2021/12/08 07:47:10;;;;;;;7.15;3.35;;;4.60;99.90;;;;;;5007805;28;20048;-78
2021/12/08 07:49:47;;;;;;;5.85;2.95;;;4.20;99.90;;;;;;5011161;28;20128;-83
2021/12/08 07:52:28;;;;;;;8.15;3.25;;;4.50;99.90;;;;;;5011356;28;20814;-79
2021/12/08 07:54:54;;;;;;;5.55;2.58;;;4.50;99.90;;;;;;5007333;28;20038;-83
2021/12/08 07:57:28;;;;;;;7.78;2.47;;;4.40;99.90;;;;;;5009397;28;20053;-83
2021/12/08 07:59:58;;;;;;;8.02;2.55;;;4.50;99.90;;;;;;4985843;28;20129;-83
2021/12/08 08:02:26;;;;;;;27.15;21.40;;;4.90;99.90;;;;;;5010459;28;20517;-79
2021/12/08 08:04:54;;;;;;;38.28;21.17;;;4.40;99.90;;;;;;5010584;28;20074;-84
2021/12/08 08:07:21;;;;;;;7.47;2.30;;;4.50;99.90;;;;;;5004320;28;20053;-77
2021/12/08 08:09:57;;;;;;;5.57;2.47;;;4.50;99.90;;;;;;5003600;28;20050;-77
2021/12/08 08:12:24;;;;;;;9.45;2.20;;;4.50;99.90;;;;;;5006243;28;20462;-77
2021/12/08 08:14:53;;;;;;;5.22;2.00;;;5.90;99.90;;;;;;5009094;28;20049;-84
2021/12/08 08:17:28;;;;;;;8.05;2.63;;;4.50;99.90;;;;;;4988743;28;20470;-77
2021/12/08 08:19:54;;;;;;;5.97;2.05;;;4.50;99.90;;;;;;5000182;28;20153;-79
2021/12/08 08:22:23;;;;;;;6.47;2.58;;;4.40;99.90;;;;;;5008021;28;20117;-81
2021/12/08 08:24:51;;;;;;;4.80;1.60;;;4.40;99.90;;;;;;5006754;28;20057;-83
2021/12/08 08:27:17;;;;;;;8.13;1.70;;;4.40;99.90;;;;;;5009019;28;20045;-79
2021/12/08 08:29:43;;;;;;;8.75;2.58;;;4.50;99.90;;;;;;5006904;28;20045;-83
2021/12/08 08:32:25;;;;;;;7.70;1.70;;;4.50;99.90;;;;;;5005667;28;20042;-78
2021/12/08 08:35:08;;;;;;;7.30;2.05;;;4.40;99.90;;;;;;5004592;28;20044;-78
2021/12/08 08:37:34;;;;;;;7.65;2.85;;;4.40;99.90;;;;;;5004112;28;20490;-81
2021/12/08 08:40:06;;;;;;;4.00;2.03;;;4.50;99.90;;;;;;5004505;28;20095;-85
2021/12/08 08:42:35;;;;;;;12.95;2.38;;;4.50;99.90;;;;;;5009506;28;20046;-85
2021/12/08 08:45:21;;;;;;;9.07;2.00;;;4.50;99.90;;;;;;5007654;28;20410;-85
2021/12/08 08:48:12;;;;;;;26.23;13.00;;;4.50;99.90;;;;;;5006310;28;20469;-84
2021/12/08 08:50:48;;;;;;;32.33;15.75;;;4.50;99.90;;;;;;5002982;28;20041;-78
2021/12/08 08:53:17;;;;;;;5.43;1.88;;;4.60;99.90;;;;;;5008023;28;20042;-77
2021/12/08 08:55:52;;;;;;;10.95;2.42;;;4.60;99.90;;;;;;5009652;28;20534;-79
2021/12/08 08:58:22;;;;;;;8.65;2.03;;;4.60;99.90;;;;;;5007920;28;20053;-85
2021/12/08 09:00:59;;;;;;;8.90;2.67;;;4.60;99.90;;;;;;5008316;28;20042;-80
2021/12/08 09:03:28;;;;;;;12.48;2.40;;;4.60;99.90;;;;;;4999957;28;20118;-86
2021/12/08 09:05:58;;;;;;;15.98;1.90;;;4.50;99.90;;;;;;5002408;28;20046;-81
2021/12/08 09:08:28;;;;;;;3.30;1.55;;;4.60;99.90;;;;;;5006212;28;20103;-85
2021/12/08 09:11:25;;;;;;;9.13;1.73;;;4.60;99.90;;;;;;5005442;28;20042;-82
2021/12/08 09:14:00;;;;;;;6.32;1.60;;;4.60;99.90;;;;;;5008154;28;20199;-82
2021/12/08 09:16:43;;;;;;;3.83;1.40;;;4.60;99.90;;;;;;5007845;28;20096;-78
2021/12/08 09:19:42;;;;;;;8.38;1.75;;;4.60;99.90;;;;;;5003387;28;20045;-81
2021/12/08 09:22:25;;;;;;;8.80;1.63;;;4.60;99.90;;;;;;5004701;28;20034;-83
2021/12/08 09:25:00;;;;;;;8.60;2.00;;;4.60;99.90;;;;;;5004079;28;20540;-85
2021/12/08 09:27:28;;;;;;;;;;;4.60;99.90;;;;;;5010615;28;20138;-80
2021/12/08 09:30:01;;;;;;;4.28;1.50;;;4.70;99.90;;;;;;5005771;28;19921;-86
2021/12/08 09:32:37;;;;;;;9.05;2.25;;;4.60;99.90;;;;;;5005070;28;20397;-83
2021/12/08 09:35:23;;;;;;;10.68;1.60;;;4.70;99.90;;;;;;5006825;28;20042;-80
2021/12/08 09:38:11;;;;;;;12.40;1.88;;;4.70;99.90;;;;;;5009574;28;20053;-84
2021/12/08 09:40:58;;;;;;;6.88;2.17;;;4.60;99.90;;;;;;5002632;28;20050;-85
2021/12/08 09:43:44;;;;;;;14.30;1.90;;;4.70;99.90;;;;;;5009197;28;20042;-81
2021/12/08 09:46:14;;;;;;;7.65;1.85;;;4.70;99.90;;;;;;5004409;28;20140;-85
2021/12/08 09:48:43;;;;;;;7.65;1.35;;;4.70;99.90;;;;;;5003127;28;20411;-84
2021/12/08 09:51:10;;;;;;;5.60;1.33;;;4.70;99.90;;;;;;5006259;28;20092;-83
2021/12/08 09:53:36;;;;;;;8.73;1.70;;;4.80;99.90;;;;;;5009584;28;20100;-81
2021/12/08 09:56:04;;;;;;;8.38;1.80;;;4.70;99.90;;;;;;5006757;28;20050;-81
2021/12/08 09:58:30;;;;;;;8.80;1.92;;;4.80;99.90;;;;;;5006193;28;20128;-84
2021/12/08 10:00:59;;;;;;;8.35;1.52;;;4.80;99.90;;;;;;5004798;28;20096;-85
2021/12/08 10:03:25;;;;;;;8.75;1.77;;;4.80;99.90;;;;;;5001921;28;20074;-87
2021/12/08 10:05:52;;;;;;;9.38;1.63;;;4.90;99.90;;;;;;5000712;28;20077;-83
2021/12/08 10:08:18;;;;;;;7.65;1.48;;;4.90;99.90;;;;;;4981128;28;20096;-78
2021/12/08 10:10:45;;;;;;;4.22;1.13;;;4.90;99.90;;;;;;4994076;28;20117;-85
2021/12/08 10:13:12;;;;;;;8.10;1.55;;;4.90;99.90;;;;;;5009257;28;20390;-82
2021/12/08 10:15:38;;;;;;;5.35;1.77;;;5.00;99.90;;;;;;5009760;28;20038;-79
2021/12/08 10:18:06;;;;;;;6.53;1.60;;;5.00;99.90;;;;;;5006138;28;20438;-83
2021/12/08 10:20:40;;;;;;;7.85;1.73;;;5.10;99.90;;;;;;5007415;28;20058;-83
2021/12/08 10:23:32;;;;;;;8.52;1.88;;;5.10;99.90;;;;;;5006266;28;20053;-83
2021/12/08 10:25:57;;;;;;;44.95;22.00;;;5.20;99.90;;;;;;5002547;28;20057;-85
2021/12/08 10:28:39;;;;;;;10.00;1.85;;;5.10;99.90;;;;;;4983164;28;20426;-85
2021/12/08 10:31:13;;;;;;;7.75;1.90;;;5.20;99.90;;;;;;5003565;28;20061;-87
2021/12/08 10:36:43;;;;;;;10.85;1.52;;;5.30;99.90;;;;;;4999122;28;20100;-84
2021/12/08 10:39:33;;;;;;;9.55;1.77;;;5.30;99.90;;;;;;4985230;28;20042;-83
2021/12/08 10:42:34;;;;;;;5.65;1.17;;;5.40;99.90;;;;;;4998642;28;20494;-83
2021/12/08 10:45:10;;;;;;;45.45;24.80;;;5.40;99.90;;;;;;4969906;28;20046;-82
2021/12/08 10:48:04;;;;;;;39.85;21.95;;;5.40;99.90;;;;;;5008628;28;20835;-83
2021/12/08 10:56:10;;;;;;;7.07;1.73;;;5.50;99.90;;;;;;4999971;28;20046;-87
2021/12/08 10:58:39;;;;;;;8.52;2.33;;;5.50;99.90;;;;;;5003131;28;20066;-86
2021/12/08 11:01:16;;;;;;;12.40;3.22;;;5.50;99.90;;;;;;5004304;28;20099;-85
2021/12/08 11:03:43;;;;;;;9.00;1.73;;;5.50;99.90;;;;;;5002900;28;20050;-80
2021/12/08 11:06:13;;;;;;;7.25;1.42;;;5.50;99.90;;;;;;5003526;28;20129;-83
2021/12/08 11:08:47;;;;;;;7.82;1.58;;;5.50;99.90;;;;;;5002568;28;20053;-81
2021/12/08 11:11:20;;;;;;;8.50;1.88;;;5.50;99.90;;;;;;4999839;28;20046;-87
2021/12/08 11:13:48;;;;;;;7.10;2.05;;;5.50;99.90;;;;;;5003569;28;20050;-80
2021/12/08 11:16:22;;;;;;;261.75;167.52;;;5.50;99.90;;;;;;5005794;28;20065;-86
2021/12/08 11:18:57;;;;;;;9.82;2.25;;;5.60;99.90;;;;;;5003946;28;20494;-83
2021/12/08 11:21:30;;;;;;;7.60;2.28;;;5.60;99.90;;;;;;5001353;28;20038;-85
2021/12/08 11:23:58;;;;;;;11.88;1.88;;;5.60;99.90;;;;;;5007269;28;20050;-81
2021/12/08 11:26:37;;;;;;;12.60;1.70;;;5.60;99.90;;;;;;5005722;28;20501;-85
2021/12/08 11:29:11;;;;;;;7.70;1.45;;;5.60;99.90;;;;;;4997700;28;20050;-86
2021/12/08 11:31:44;;;;;;;10.20;3.70;;;5.60;99.90;;;;;;5005085;28;20045;-84
2021/12/08 11:34:22;;;;;;;5.85;1.25;;;5.60;99.90;;;;;;4999611;28;20054;-78
2021/12/08 11:36:51;;;;;;;11.05;1.73;;;5.60;99.90;;;;;;5003371;28;20057;-85
2021/12/08 11:39:33;;;;;;;6.20;1.70;;;5.60;99.90;;;;;;5002321;28;20490;-84
2021/12/08 11:42:06;;;;;;;15.45;1.55;;;5.60;99.90;;;;;;4997836;28;20493;-87
2021/12/08 11:44:36;;;;;;;5.53;1.63;;;5.60;99.90;;;;;;5000972;28;20052;-82
2021/12/08 11:47:12;;;;;;;10.05;1.45;;;5.60;99.90;;;;;;5007975;28;20501;-77
2021/12/08 11:49:52;;;;;;;12.43;1.75;;;5.60;99.90;;;;;;5001671;28;20133;-84
2021/12/08 11:52:23;;;;;;;3.80;1.08;;;5.60;99.90;;;;;;5003798;28;20060;-86
2021/12/08 11:54:56;;;;;;;91.88;53.10;;;5.60;99.90;;;;;;4998812;28;20038;-84
2021/12/08 11:57:32;;;;;;;16.27;7.50;;;5.60;99.90;;;;;;4999275;28;20046;-83
2021/12/08 12:00:06;;;;;;;4.00;1.20;;;5.60;99.90;;;;;;5002745;28;20062;-81
2021/12/08 12:02:37;;;;;;;8.23;1.20;;;5.60;99.90;;;;;;5007643;28;20046;-78
2021/12/08 12:05:07;;;;;;;6.15;1.48;;;5.60;99.90;;;;;;4994190;28;20050;-84
2021/12/08 12:07:33;;;;;;;10.90;1.50;;;5.80;99.90;;;;;;5004134;28;20484;-84
2021/12/08 12:09:59;;;;;;;8.15;1.52;;;5.80;99.90;;;;;;5000298;28;20117;-83
2021/12/08 12:12:24;;;;;;;9.57;2.30;;;5.80;99.90;;;;;;5001304;28;20103;-83
2021/12/08 12:14:51;;;;;;;5.93;1.92;;;5.60;99.90;;;;;;5002029;28;20128;-80
2021/12/08 12:17:17;;;;;;;10.15;2.00;;;5.60;99.90;;;;;;5005394;28;20529;-85
2021/12/08 12:19:55;;;;;;;9.40;1.50;;;5.60;99.90;;;;;;4994963;28;20061;-86
2021/12/08 12:22:40;;;;;;;5.15;1.58;;;5.60;99.90;;;;;;5003492;28;20034;-78
2021/12/08 12:25:14;;;;;;;11.43;2.63;;;5.60;99.90;;;;;;5000103;28;20049;-88
2021/12/08 12:28:05;;;;;;;12.25;2.65;;;5.60;99.90;;;;;;5000354;28;20100;-86
2021/12/08 12:30:49;;;;;;;4.95;1.50;;;5.60;99.90;;;;;;4988183;28;20406;-80
2021/12/08 12:33:18;;;;;;;7.00;2.42;;;5.60;99.90;;;;;;4993297;28;20124;-86
2021/12/08 12:35:56;;;;;;;6.15;1.77;;;5.60;99.90;;;;;;5001000;28;20494;-88
2021/12/08 12:38:34;;;;;;;9.20;1.90;;;5.50;99.90;;;;;;5002989;28;20219;-88
2021/12/08 12:41:00;;;;;;;8.80;1.70;;;5.60;99.90;;;;;;4995902;28;20042;-83
2021/12/08 12:43:29;;;;;;;12.07;1.83;;;5.60;99.90;;;;;;5001653;28;20041;-86
2021/12/08 12:46:12;;;;;;;7.53;2.47;;;5.50;99.90;;;;;;5002768;28;20046;-85
2021/12/08 12:48:38;;;;;;;4.38;1.95;;;5.50;99.90;;;;;;4994447;28;20039;-88
2021/12/08 12:51:10;;;;;;;10.40;1.67;;;5.50;99.90;;;;;;5002840;28;20048;-78
2021/12/08 12:53:40;;;;;;;6.25;1.85;;;5.50;99.90;;;;;;5002916;28;20045;-86
2021/12/08 12:56:08;;;;;;;17.27;2.60;;;5.50;99.90;;;;;;4997502;28;20043;-86
2021/12/08 12:58:44;;;;;;;6.30;1.90;;;5.50;99.90;;;;;;4999701;28;20058;-88
2021/12/08 13:01:14;;;;;;;8.50;2.33;;;5.50;99.90;;;;;;5001676;28;20050;-82
2021/12/08 13:03:47;;;;;;;10.57;2.22;;;5.50;99.90;;;;;;4995130;28;20049;-84
2021/12/08 13:06:17;;;;;;;6.00;2.30;;;5.50;99.90;;;;;;5002125;28;20084;-81
2021/12/08 13:08:49;;;;;;;12.57;2.58;;;5.50;99.90;;;;;;5001357;28;20406;-83
2021/12/08 13:11:30;;;;;;;8.18;1.98;;;5.50;99.90;;;;;;4999748;28;20034;-81
2021/12/08 13:13:57;;;;;;;8.30;2.08;;;5.50;99.90;;;;;;4998155;28;20409;-87
2021/12/08 13:16:33;;;;;;;4.38;1.67;;;5.50;99.90;;;;;;4998086;28;20069;-85
2021/12/08 13:19:02;;;;;;;9.13;3.17;;;5.50;99.90;;;;;;4994339;28;20046;-78
2021/12/08 13:21:45;;;;;;;7.80;1.48;;;5.50;99.90;;;;;;5001903;28;20050;-85
2021/12/08 13:24:36;;;;;;;10.57;2.22;;;5.50;99.90;;;;;;4997298;28;20042;-80
2021/12/08 13:27:10;;;;;;;8.15;2.35;;;5.50;99.90;;;;;;5001738;28;20057;-78
2021/12/08 13:29:39;;;;;;;9.88;2.28;;;5.50;99.90;;;;;;5002133;28;20038;-86
2021/12/08 13:32:12;;;;;;;8.30;1.42;;;5.50;99.90;;;;;;4998696;28;20042;-86
2021/12/08 13:34:53;;;;;;;5.40;1.92;;;6.50;99.90;;;;;;4998246;28;20042;-84
2021/12/08 13:37:25;;;;;;;7.63;2.00;;;5.50;99.90;;;;;;4998690;28;20112;-89
2021/12/08 13:39:52;;;;;;;6.25;2.03;;;5.50;99.90;;;;;;4999833;28;20074;-86
2021/12/08 13:42:30;;;;;;;12.85;2.17;;;5.50;99.90;;;;;;5002359;28;20414;-87
2021/12/08 13:45:03;;;;;;;7.35;2.30;;;5.50;99.90;;;;;;4999787;28;20552;-88
2021/12/08 13:47:35;;;;;;;4.63;1.60;;;5.50;99.90;;;;;;5003578;28;20655;-90
2021/12/08 13:50:06;;;;;;;9.40;3.03;;;5.50;99.90;;;;;;4999690;28;20082;-86
2021/12/08 13:52:37;;;;;;;7.63;2.05;;;5.60;99.90;;;;;;5006265;28;20104;-87
2021/12/08 13:55:09;;;;;;;5.18;1.30;;;5.50;99.90;;;;;;4999605;28;20117;-85
2021/12/08 13:57:40;;;;;;;8.57;2.50;;;5.50;99.90;;;;;;4997831;28;20384;-79
2021/12/08 14:00:17;;;;;;;9.25;1.98;;;5.60;99.90;;;;;;5001655;28;20050;-84
2021/12/08 14:02:48;;;;;;;6.82;1.67;;;5.50;99.90;;;;;;5001467;28;20108;-86